sensor_id;sensor_type;location;lat;lon;timestamp;temperature;humidity
3996;DHT22;2012;49.794;9.722;2024-03-22T00:00:47;7.40;99.90
3996;DHT22;2012;49.794;9.722;2024-03-22T00:03:13;7.40;99.90
3996;DHT22;2012;49.794;9.722;2024-03-22T00:05:39;7.30;99.90
3996;DHT22;2012;49.794;9.722;2024-03-22T00:08:05;7.30;99.90
3996;DHT22;2012;49.794;9.722;2024-03-22T00:10:31;7.20;99.90
3996;DHT22;2012;49.794;9.722;2024-03-22T00:12:56;7.20;99.90
3996;DHT22;2012;49.794;9.722;2024-03-22T00:15:22;7.20;99.90
3996;DHT22;2012;49.794;9.722;2024-03-22T00:17:48;7.00;99.90
3996;DHT22;2012;49.794;9.722;2024-03-22T00:20:14;7.00;99.90
3996;DHT22;2012;49.794;9.722;2024-03-22T00:22:40;6.90;99.90
3996;DHT22;2012;49.794;9.722;2024-03-22T00:25:06;7.00;99.90
3996;DHT22;2012;49.794;9.722;2024-03-22T00:27:32;7.00;99.90
3996;DHT22;2012;49.794;9.722;2024-03-22T00:29:58;7.00;99.90
3996;DHT22;2012;49.794;9.722;2024-03-22T00:32:24;7.00;99.90
3996;DHT22;2012;49.794;9.722;2024-03-22T00:34:50;6.90;99.90
3996;DHT22;2012;49.794;9.722;2024-03-22T00:37:16;7.00;99.90
3996;DHT22;2012;49.794;9.722;2024-03-22T00:39:42;6.70;99.90
3996;DHT22;2012;49.794;9.722;2024-03-22T00:42:08;6.70;99.90
3996;DHT22;2012;49.794;9.722;2024-03-22T00:44:33;6.80;99.90
3996;DHT22;2012;49.794;9.722;2024-03-22T00:46:59;6.60;99.90
3996;DHT22;2012;49.794;9.722;2024-03-22T00:49:25;6.70;99.90
3996;DHT22;2012;49.794;9.722;2024-03-22T00:51:51;6.70;99.90
3996;DHT22;2012;49.794;9.722;2024-03-22T00:54:17;6.80;99.90
3996;DHT22;2012;49.794;9.722;2024-03-22T00:56:43;6.90;99.90
3996;DHT22;2012;49.794;9.722;2024-03-22T00:59:09;6.80;99.90
3996;DHT22;2012;49.794;9.722;2024-03-22T01:01:35;6.80;99.90
3996;DHT22;2012;49.794;9.722;2024-03-22T01:04:01;6.50;99.90
3996;DHT22;2012;49.794;9.722;2024-03-22T01:06:27;6.50;99.90
3996;DHT22;2012;49.794;9.722;2024-03-22T01:08:53;6.60;99.90
3996;DHT22;2012;49.794;9.722;2024-03-22T01:11:19;6.40;99.90
3996;DHT22;2012;49.794;9.722;2024-03-22T01:13:45;6.40;99.90
3996;DHT22;2012;49.794;9.722;2024-03-22T01:16:11;6.30;99.90
3996;DHT22;2012;49.794;9.722;2024-03-22T01:18:37;6.30;99.90
3996;DHT22;2012;49.794;9.722;2024-03-22T01:21:03;6.30;99.90
3996;DHT22;2012;49.794;9.722;2024-03-22T01:23:29;6.40;99.90
3996;DHT22;2012;49.794;9.722;2024-03-22T01:25:55;6.40;99.90
3996;DHT22;2012;49.794;9.722;2024-03-22T01:28:20;6.50;99.90
3996;DHT22;2012;49.794;9.722;2024-03-22T01:30:46;6.40;99.90
3996;DHT22;2012;49.794;9.722;2024-03-22T01:33:12;6.30;99.90
3996;DHT22;2012;49.794;9.722;2024-03-22T01:35:38;6.30;99.90
3996;DHT22;2012;49.794;9.722;2024-03-22T01:38:04;6.10;99.90
3996;DHT22;2012;49.794;9.722;2024-03-22T01:40:30;6.10;99.90
3996;DHT22;2012;49.794;9.722;2024-03-22T01:42:57;6.00;99.90
3996;DHT22;2012;49.794;9.722;2024-03-22T01:45:23;6.00;99.90
3996;DHT22;2012;49.794;9.722;2024-03-22T01:47:51;5.90;99.90
3996;DHT22;2012;49.794;9.722;2024-03-22T01:50:21;6.00;99.90
3996;DHT22;2012;49.794;9.722;2024-03-22T01:52:47;6.00;99.90
3996;DHT22;2012;49.794;9.722;2024-03-22T01:55:13;5.90;99.90
3996;DHT22;2012;49.794;9.722;2024-03-22T01:57:40;5.80;99.90
3996;DHT22;2012;49.794;9.722;2024-03-22T02:00:10;6.00;99.90
3996;DHT22;2012;49.794;9.722;2024-03-22T02:02:42;6.00;99.90
3996;DHT22;2012;49.794;9.722;2024-03-22T02:05:12;5.90;99.90
3996;DHT22;2012;49.794;9.722;2024-03-22T02:07:38;5.80;99.90
3996;DHT22;2012;49.794;9.722;2024-03-22T02:10:05;5.60;99.90
3996;DHT22;2012;49.794;9.722;2024-03-22T02:12:34;5.60;99.90
3996;DHT22;2012;49.794;9.722;2024-03-22T02:15:01;5.60;99.90
3996;DHT22;2012;49.794;9.722;2024-03-22T02:17:27;5.80;99.90
3996;DHT22;2012;49.794;9.722;2024-03-22T02:19:53;5.80;99.90
3996;DHT22;2012;49.794;9.722;2024-03-22T02:22:19;5.80;99.90
3996;DHT22;2012;49.794;9.722;2024-03-22T02:24:45;5.80;99.90
3996;DHT22;2012;49.794;9.722;2024-03-22T02:27:10;5.70;99.90
3996;DHT22;2012;49.794;9.722;2024-03-22T02:29:36;5.70;99.90
3996;DHT22;2012;49.794;9.722;2024-03-22T02:32:02;5.70;99.90
3996;DHT22;2012;49.794;9.722;2024-03-22T02:34:29;5.60;99.90
3996;DHT22;2012;49.794;9.722;2024-03-22T02:36:55;5.60;99.90
3996;DHT22;2012;49.794;9.722;2024-03-22T02:39:21;5.50;99.90
3996;DHT22;2012;49.794;9.722;2024-03-22T02:41:46;5.50;99.90
3996;DHT22;2012;49.794;9.722;2024-03-22T02:44:12;5.30;99.90
3996;DHT22;2012;49.794;9.722;2024-03-22T02:46:38;5.30;99.90
3996;DHT22;2012;49.794;9.722;2024-03-22T02:49:04;5.30;99.90
3996;DHT22;2012;49.794;9.722;2024-03-22T02:51:30;5.20;99.90
3996;DHT22;2012;49.794;9.722;2024-03-22T02:53:56;5.20;99.90
3996;DHT22;2012;49.794;9.722;2024-03-22T02:56:23;5.20;99.90
3996;DHT22;2012;49.794;9.722;2024-03-22T02:58:52;5.20;99.90
3996;DHT22;2012;49.794;9.722;2024-03-22T03:01:17;5.20;99.90
3996;DHT22;2012;49.794;9.722;2024-03-22T03:03:43;5.20;99.90
3996;DHT22;2012;49.794;9.722;2024-03-22T03:06:09;5.30;99.90
3996;DHT22;2012;49.794;9.722;2024-03-22T03:08:35;5.30;99.90
3996;DHT22;2012;49.794;9.722;2024-03-22T03:11:01;5.20;99.90
3996;DHT22;2012;49.794;9.722;2024-03-22T03:13:27;5.20;99.90
3996;DHT22;2012;49.794;9.722;2024-03-22T03:15:54;5.10;99.90
3996;DHT22;2012;49.794;9.722;2024-03-22T03:18:20;5.10;99.90
3996;DHT22;2012;49.794;9.722;2024-03-22T03:20:46;5.00;99.90
3996;DHT22;2012;49.794;9.722;2024-03-22T03:23:12;5.10;99.90
3996;DHT22;2012;49.794;9.722;2024-03-22T03:25:38;5.10;99.90
3996;DHT22;2012;49.794;9.722;2024-03-22T03:28:04;4.90;99.90
3996;DHT22;2012;49.794;9.722;2024-03-22T03:30:30;4.90;99.90
3996;DHT22;2012;49.794;9.722;2024-03-22T03:32:56;4.90;99.90
3996;DHT22;2012;49.794;9.722;2024-03-22T03:35:22;5.00;99.90
3996;DHT22;2012;49.794;9.722;2024-03-22T03:37:48;4.90;99.90
3996;DHT22;2012;49.794;9.722;2024-03-22T03:40:14;5.00;99.90
3996;DHT22;2012;49.794;9.722;2024-03-22T03:42:40;4.90;99.90
3996;DHT22;2012;49.794;9.722;2024-03-22T03:45:06;4.80;99.90
3996;DHT22;2012;49.794;9.722;2024-03-22T03:47:32;4.70;99.90
3996;DHT22;2012;49.794;9.722;2024-03-22T03:49:58;4.80;99.90
3996;DHT22;2012;49.794;9.722;2024-03-22T03:52:25;4.80;99.90
3996;DHT22;2012;49.794;9.722;2024-03-22T03:54:50;4.80;99.90
3996;DHT22;2012;49.794;9.722;2024-03-22T03:57:16;4.80;99.90
3996;DHT22;2012;49.794;9.722;2024-03-22T03:59:42;4.90;99.90
3996;DHT22;2012;49.794;9.722;2024-03-22T04:02:08;4.80;99.90
3996;DHT22;2012;49.794;9.722;2024-03-22T04:04:34;4.70;99.90
3996;DHT22;2012;49.794;9.722;2024-03-22T04:07:00;4.70;99.90
3996;DHT22;2012;49.794;9.722;2024-03-22T04:09:26;4.70;99.90
3996;DHT22;2012;49.794;9.722;2024-03-22T04:11:51;4.60;99.90
3996;DHT22;2012;49.794;9.722;2024-03-22T04:14:17;4.70;99.90
3996;DHT22;2012;49.794;9.722;2024-03-22T04:16:43;4.70;99.90
3996;DHT22;2012;49.794;9.722;2024-03-22T04:19:09;4.70;99.90
3996;DHT22;2012;49.794;9.722;2024-03-22T04:21:35;4.60;99.90
3996;DHT22;2012;49.794;9.722;2024-03-22T04:24:01;4.60;99.90
3996;DHT22;2012;49.794;9.722;2024-03-22T04:26:27;4.50;99.90
3996;DHT22;2012;49.794;9.722;2024-03-22T04:28:53;4.50;99.90
3996;DHT22;2012;49.794;9.722;2024-03-22T04:31:19;4.50;99.90
3996;DHT22;2012;49.794;9.722;2024-03-22T04:33:45;4.50;99.90
3996;DHT22;2012;49.794;9.722;2024-03-22T04:36:11;4.50;99.90
3996;DHT22;2012;49.794;9.722;2024-03-22T04:38:37;4.40;99.90
3996;DHT22;2012;49.794;9.722;2024-03-22T04:41:03;4.50;99.90
3996;DHT22;2012;49.794;9.722;2024-03-22T04:43:29;4.40;99.90
3996;DHT22;2012;49.794;9.722;2024-03-22T04:45:55;4.30;99.90
3996;DHT22;2012;49.794;9.722;2024-03-22T04:48:22;4.30;99.90
3996;DHT22;2012;49.794;9.722;2024-03-22T04:50:50;4.50;99.90
3996;DHT22;2012;49.794;9.722;2024-03-22T04:53:20;4.50;99.90
3996;DHT22;2012;49.794;9.722;2024-03-22T04:55:50;4.40;99.90
3996;DHT22;2012;49.794;9.722;2024-03-22T04:58:20;4.40;99.90
3996;DHT22;2012;49.794;9.722;2024-03-22T05:00:55;4.40;99.90
3996;DHT22;2012;49.794;9.722;2024-03-22T05:03:21;4.20;99.90
3996;DHT22;2012;49.794;9.722;2024-03-22T05:05:49;4.40;99.90
3996;DHT22;2012;49.794;9.722;2024-03-22T05:08:15;4.50;99.90
3996;DHT22;2012;49.794;9.722;2024-03-22T05:10:41;4.40;99.90
3996;DHT22;2012;49.794;9.722;2024-03-22T05:13:07;4.40;99.90
3996;DHT22;2012;49.794;9.722;2024-03-22T05:15:33;4.40;99.90
3996;DHT22;2012;49.794;9.722;2024-03-22T05:17:59;4.30;99.90
3996;DHT22;2012;49.794;9.722;2024-03-22T05:20:25;4.40;99.90
3996;DHT22;2012;49.794;9.722;2024-03-22T05:22:52;4.30;99.90
3996;DHT22;2012;49.794;9.722;2024-03-22T05:25:18;4.30;99.90
3996;DHT22;2012;49.794;9.722;2024-03-22T05:27:44;4.30;99.90
3996;DHT22;2012;49.794;9.722;2024-03-22T05:30:11;4.30;99.90
3996;DHT22;2012;49.794;9.722;2024-03-22T05:32:39;4.50;99.90
3996;DHT22;2012;49.794;9.722;2024-03-22T05:35:06;4.70;99.90
3996;DHT22;2012;49.794;9.722;2024-03-22T05:37:32;4.50;99.90
3996;DHT22;2012;49.794;9.722;2024-03-22T05:40:00;4.40;99.90
3996;DHT22;2012;49.794;9.722;2024-03-22T05:42:26;4.30;99.90
3996;DHT22;2012;49.794;9.722;2024-03-22T05:44:52;4.30;99.90
3996;DHT22;2012;49.794;9.722;2024-03-22T05:47:19;4.20;99.90
3996;DHT22;2012;49.794;9.722;2024-03-22T05:49:45;4.20;99.90
3996;DHT22;2012;49.794;9.722;2024-03-22T05:52:11;4.20;99.90
3996;DHT22;2012;49.794;9.722;2024-03-22T05:54:38;4.30;99.90
3996;DHT22;2012;49.794;9.722;2024-03-22T05:57:04;4.40;99.90
3996;DHT22;2012;49.794;9.722;2024-03-22T05:59:31;4.40;99.90
3996;DHT22;2012;49.794;9.722;2024-03-22T06:01:57;4.40;99.90
3996;DHT22;2012;49.794;9.722;2024-03-22T06:04:23;4.40;99.90
3996;DHT22;2012;49.794;9.722;2024-03-22T06:06:49;4.50;99.90
3996;DHT22;2012;49.794;9.722;2024-03-22T06:09:15;4.50;99.90
3996;DHT22;2012;49.794;9.722;2024-03-22T06:11:50;4.40;99.90
3996;DHT22;2012;49.794;9.722;2024-03-22T06:14:17;4.40;99.90
3996;DHT22;2012;49.794;9.722;2024-03-22T06:16:43;4.20;99.90
3996;DHT22;2012;49.794;9.722;2024-03-22T06:19:08;4.20;99.90
3996;DHT22;2012;49.794;9.722;2024-03-22T06:21:34;4.30;99.90
3996;DHT22;2012;49.794;9.722;2024-03-22T06:24:01;4.20;99.90
3996;DHT22;2012;49.794;9.722;2024-03-22T06:26:26;4.30;99.90
3996;DHT22;2012;49.794;9.722;2024-03-22T06:28:52;4.40;99.90
3996;DHT22;2012;49.794;9.722;2024-03-22T06:31:18;4.50;99.90
3996;DHT22;2012;49.794;9.722;2024-03-22T06:33:44;4.60;99.90
3996;DHT22;2012;49.794;9.722;2024-03-22T06:36:10;4.60;99.90
3996;DHT22;2012;49.794;9.722;2024-03-22T06:38:36;4.70;99.90
3996;DHT22;2012;49.794;9.722;2024-03-22T06:41:01;4.80;99.90
3996;DHT22;2012;49.794;9.722;2024-03-22T06:43:29;4.80;99.90
3996;DHT22;2012;49.794;9.722;2024-03-22T06:45:55;4.70;99.90
3996;DHT22;2012;49.794;9.722;2024-03-22T06:48:21;4.90;99.90
3996;DHT22;2012;49.794;9.722;2024-03-22T06:50:48;4.90;99.90
3996;DHT22;2012;49.794;9.722;2024-03-22T06:53:14;5.10;99.90
3996;DHT22;2012;49.794;9.722;2024-03-22T06:55:40;5.00;99.90
3996;DHT22;2012;49.794;9.722;2024-03-22T06:58:06;5.10;99.90
3996;DHT22;2012;49.794;9.722;2024-03-22T07:00:31;5.20;99.90
3996;DHT22;2012;49.794;9.722;2024-03-22T07:03:01;5.40;99.90
3996;DHT22;2012;49.794;9.722;2024-03-22T07:05:28;5.50;99.90
3996;DHT22;2012;49.794;9.722;2024-03-22T07:07:54;5.50;99.90
3996;DHT22;2012;49.794;9.722;2024-03-22T07:10:23;5.60;99.90
3996;DHT22;2012;49.794;9.722;2024-03-22T07:12:56;5.70;99.90
3996;DHT22;2012;49.794;9.722;2024-03-22T07:15:23;5.80;99.90
3996;DHT22;2012;49.794;9.722;2024-03-22T07:17:49;5.90;99.90
3996;DHT22;2012;49.794;9.722;2024-03-22T07:20:16;6.00;99.90
3996;DHT22;2012;49.794;9.722;2024-03-22T07:22:42;6.10;99.90
3996;DHT22;2012;49.794;9.722;2024-03-22T07:25:08;6.30;99.90
3996;DHT22;2012;49.794;9.722;2024-03-22T07:27:37;6.40;99.90
3996;DHT22;2012;49.794;9.722;2024-03-22T07:30:03;6.50;99.90
3996;DHT22;2012;49.794;9.722;2024-03-22T07:32:30;6.70;99.90
3996;DHT22;2012;49.794;9.722;2024-03-22T07:34:56;6.90;99.90
3996;DHT22;2012;49.794;9.722;2024-03-22T07:37:22;7.00;99.90
3996;DHT22;2012;49.794;9.722;2024-03-22T07:39:49;7.10;99.90
3996;DHT22;2012;49.794;9.722;2024-03-22T07:42:14;7.10;99.90
3996;DHT22;2012;49.794;9.722;2024-03-22T07:44:40;7.20;99.90
3996;DHT22;2012;49.794;9.722;2024-03-22T07:47:06;7.30;99.90
3996;DHT22;2012;49.794;9.722;2024-03-22T07:49:32;7.30;99.90
3996;DHT22;2012;49.794;9.722;2024-03-22T07:52:00;7.30;99.90
3996;DHT22;2012;49.794;9.722;2024-03-22T07:54:26;7.40;99.90
3996;DHT22;2012;49.794;9.722;2024-03-22T07:56:52;7.50;99.90
3996;DHT22;2012;49.794;9.722;2024-03-22T07:59:18;7.50;99.90
3996;DHT22;2012;49.794;9.722;2024-03-22T08:01:44;7.50;99.90
3996;DHT22;2012;49.794;9.722;2024-03-22T08:04:10;7.70;99.90
3996;DHT22;2012;49.794;9.722;2024-03-22T08:06:35;7.70;99.90
3996;DHT22;2012;49.794;9.722;2024-03-22T08:09:01;7.80;99.90
3996;DHT22;2012;49.794;9.722;2024-03-22T08:11:28;7.80;99.90
3996;DHT22;2012;49.794;9.722;2024-03-22T08:13:54;8.00;99.90
3996;DHT22;2012;49.794;9.722;2024-03-22T08:16:28;8.20;99.90
3996;DHT22;2012;49.794;9.722;2024-03-22T08:18:54;8.20;99.90
3996;DHT22;2012;49.794;9.722;2024-03-22T08:21:21;8.20;99.90
3996;DHT22;2012;49.794;9.722;2024-03-22T08:23:47;8.50;99.90
3996;DHT22;2012;49.794;9.722;2024-03-22T08:26:13;8.60;99.90
3996;DHT22;2012;49.794;9.722;2024-03-22T08:28:39;8.90;99.90
3996;DHT22;2012;49.794;9.722;2024-03-22T08:31:05;9.20;99.90
3996;DHT22;2012;49.794;9.722;2024-03-22T08:33:31;9.30;99.90
3996;DHT22;2012;49.794;9.722;2024-03-22T08:35:57;9.40;99.90
3996;DHT22;2012;49.794;9.722;2024-03-22T08:38:24;9.80;99.90
3996;DHT22;2012;49.794;9.722;2024-03-22T08:40:50;9.90;99.90
3996;DHT22;2012;49.794;9.722;2024-03-22T08:43:16;10.10;99.90
3996;DHT22;2012;49.794;9.722;2024-03-22T08:45:42;10.30;99.90
3996;DHT22;2012;49.794;9.722;2024-03-22T08:48:08;10.10;99.90
3996;DHT22;2012;49.794;9.722;2024-03-22T08:50:34;10.30;99.90
3996;DHT22;2012;49.794;9.722;2024-03-22T08:53:00;10.40;99.90
3996;DHT22;2012;49.794;9.722;2024-03-22T08:55:29;10.60;99.90
3996;DHT22;2012;49.794;9.722;2024-03-22T08:57:55;10.60;99.90
3996;DHT22;2012;49.794;9.722;2024-03-22T09:00:21;10.80;99.90
3996;DHT22;2012;49.794;9.722;2024-03-22T09:02:47;11.00;99.90
3996;DHT22;2012;49.794;9.722;2024-03-22T09:05:13;11.10;99.90
3996;DHT22;2012;49.794;9.722;2024-03-22T09:07:38;11.20;99.90
3996;DHT22;2012;49.794;9.722;2024-03-22T09:10:05;11.30;99.90
3996;DHT22;2012;49.794;9.722;2024-03-22T09:12:32;11.40;99.90
3996;DHT22;2012;49.794;9.722;2024-03-22T09:14:58;11.60;99.90
3996;DHT22;2012;49.794;9.722;2024-03-22T09:17:23;11.70;99.90
3996;DHT22;2012;49.794;9.722;2024-03-22T09:19:49;11.70;99.90
3996;DHT22;2012;49.794;9.722;2024-03-22T09:22:15;11.90;99.90
3996;DHT22;2012;49.794;9.722;2024-03-22T09:24:41;12.00;99.90
3996;DHT22;2012;49.794;9.722;2024-03-22T09:27:07;12.20;99.90
3996;DHT22;2012;49.794;9.722;2024-03-22T09:29:36;12.00;99.90
3996;DHT22;2012;49.794;9.722;2024-03-22T09:32:02;12.00;99.90
3996;DHT22;2012;49.794;9.722;2024-03-22T09:34:28;12.20;99.90
3996;DHT22;2012;49.794;9.722;2024-03-22T09:36:56;12.20;99.90
3996;DHT22;2012;49.794;9.722;2024-03-22T09:39:25;12.40;99.90
3996;DHT22;2012;49.794;9.722;2024-03-22T09:41:52;12.30;99.90
3996;DHT22;2012;49.794;9.722;2024-03-22T09:44:23;12.40;99.90
3996;DHT22;2012;49.794;9.722;2024-03-22T09:46:50;12.40;99.90
3996;DHT22;2012;49.794;9.722;2024-03-22T09:49:16;12.50;99.90
3996;DHT22;2012;49.794;9.722;2024-03-22T09:51:43;12.50;99.90
3996;DHT22;2012;49.794;9.722;2024-03-22T09:54:10;12.60;99.90
3996;DHT22;2012;49.794;9.722;2024-03-22T09:56:38;12.60;99.90
3996;DHT22;2012;49.794;9.722;2024-03-22T09:59:05;12.70;99.90
3996;DHT22;2012;49.794;9.722;2024-03-22T10:01:33;12.70;99.90
3996;DHT22;2012;49.794;9.722;2024-03-22T10:04:00;12.90;99.90
3996;DHT22;2012;49.794;9.722;2024-03-22T10:06:26;12.90;99.90
3996;DHT22;2012;49.794;9.722;2024-03-22T10:08:52;13.00;99.90
3996;DHT22;2012;49.794;9.722;2024-03-22T10:11:19;13.20;99.90
3996;DHT22;2012;49.794;9.722;2024-03-22T10:13:44;13.20;99.90
3996;DHT22;2012;49.794;9.722;2024-03-22T10:16:11;13.30;99.90
3996;DHT22;2012;49.794;9.722;2024-03-22T10:18:37;13.40;99.90
3996;DHT22;2012;49.794;9.722;2024-03-22T10:21:04;13.50;99.90
3996;DHT22;2012;49.794;9.722;2024-03-22T10:23:31;13.50;99.90
3996;DHT22;2012;49.794;9.722;2024-03-22T10:25:58;13.70;99.90
3996;DHT22;2012;49.794;9.722;2024-03-22T10:28:25;13.60;99.90
3996;DHT22;2012;49.794;9.722;2024-03-22T10:30:51;13.60;99.90
3996;DHT22;2012;49.794;9.722;2024-03-22T10:33:21;13.60;99.90
3996;DHT22;2012;49.794;9.722;2024-03-22T10:35:53;13.60;99.90
3996;DHT22;2012;49.794;9.722;2024-03-22T10:38:20;13.50;99.90
3996;DHT22;2012;49.794;9.722;2024-03-22T10:40:47;13.50;99.90
3996;DHT22;2012;49.794;9.722;2024-03-22T10:43:16;13.40;99.90
3996;DHT22;2012;49.794;9.722;2024-03-22T10:45:42;13.50;99.90
3996;DHT22;2012;49.794;9.722;2024-03-22T10:48:12;13.40;99.90
3996;DHT22;2012;49.794;9.722;2024-03-22T10:50:42;13.30;99.90
3996;DHT22;2012;49.794;9.722;2024-03-22T10:53:12;13.30;99.90
3996;DHT22;2012;49.794;9.722;2024-03-22T10:55:46;13.30;99.90
3996;DHT22;2012;49.794;9.722;2024-03-22T10:58:31;13.30;99.90
3996;DHT22;2012;49.794;9.722;2024-03-22T11:00:57;13.30;99.90
3996;DHT22;2012;49.794;9.722;2024-03-22T11:03:25;13.30;99.90
3996;DHT22;2012;49.794;9.722;2024-03-22T11:05:56;13.40;99.90
3996;DHT22;2012;49.794;9.722;2024-03-22T11:08:31;13.50;99.90
3996;DHT22;2012;49.794;9.722;2024-03-22T11:10:58;13.70;99.90
3996;DHT22;2012;49.794;9.722;2024-03-22T11:13:24;13.70;99.90
3996;DHT22;2012;49.794;9.722;2024-03-22T11:15:50;13.90;99.90
3996;DHT22;2012;49.794;9.722;2024-03-22T11:18:17;13.90;99.90
3996;DHT22;2012;49.794;9.722;2024-03-22T11:20:44;13.90;99.90
3996;DHT22;2012;49.794;9.722;2024-03-22T11:23:12;13.90;99.90
3996;DHT22;2012;49.794;9.722;2024-03-22T11:25:38;13.90;99.90
3996;DHT22;2012;49.794;9.722;2024-03-22T11:28:05;14.10;99.90
3996;DHT22;2012;49.794;9.722;2024-03-22T11:30:33;14.00;99.90
3996;DHT22;2012;49.794;9.722;2024-03-22T11:33:04;14.00;99.90
3996;DHT22;2012;49.794;9.722;2024-03-22T11:35:31;14.00;99.90
3996;DHT22;2012;49.794;9.722;2024-03-22T11:37:57;14.00;99.90
3996;DHT22;2012;49.794;9.722;2024-03-22T11:40:25;14.10;99.90
3996;DHT22;2012;49.794;9.722;2024-03-22T11:42:54;14.20;99.90
3996;DHT22;2012;49.794;9.722;2024-03-22T11:45:21;14.20;99.90
3996;DHT22;2012;49.794;9.722;2024-03-22T11:47:48;14.30;99.90
3996;DHT22;2012;49.794;9.722;2024-03-22T11:50:15;14.30;99.90
3996;DHT22;2012;49.794;9.722;2024-03-22T11:52:42;14.50;99.90
3996;DHT22;2012;49.794;9.722;2024-03-22T11:55:08;14.60;99.90
3996;DHT22;2012;49.794;9.722;2024-03-22T11:57:34;14.60;99.90
3996;DHT22;2012;49.794;9.722;2024-03-22T12:00:01;14.60;99.90
3996;DHT22;2012;49.794;9.722;2024-03-22T12:02:38;14.60;99.90
3996;DHT22;2012;49.794;9.722;2024-03-22T12:05:05;14.60;99.90
3996;DHT22;2012;49.794;9.722;2024-03-22T12:07:31;14.70;99.90
3996;DHT22;2012;49.794;9.722;2024-03-22T12:09:58;14.80;99.90
3996;DHT22;2012;49.794;9.722;2024-03-22T12:12:24;14.80;99.90
3996;DHT22;2012;49.794;9.722;2024-03-22T12:14:50;14.90;99.90
3996;DHT22;2012;49.794;9.722;2024-03-22T12:17:16;14.90;99.90
3996;DHT22;2012;49.794;9.722;2024-03-22T12:19:43;14.90;99.90
3996;DHT22;2012;49.794;9.722;2024-03-22T12:22:09;14.90;99.90
3996;DHT22;2012;49.794;9.722;2024-03-22T12:24:36;14.90;99.90
3996;DHT22;2012;49.794;9.722;2024-03-22T12:27:02;15.00;99.90
3996;DHT22;2012;49.794;9.722;2024-03-22T12:29:28;15.00;99.90
3996;DHT22;2012;49.794;9.722;2024-03-22T12:31:54;15.00;99.90
3996;DHT22;2012;49.794;9.722;2024-03-22T12:34:20;15.00;99.90
3996;DHT22;2012;49.794;9.722;2024-03-22T12:36:46;15.10;99.90
3996;DHT22;2012;49.794;9.722;2024-03-22T12:39:12;15.10;99.90
3996;DHT22;2012;49.794;9.722;2024-03-22T12:41:38;15.20;99.90
3996;DHT22;2012;49.794;9.722;2024-03-22T12:44:04;15.20;99.90
3996;DHT22;2012;49.794;9.722;2024-03-22T12:46:30;15.30;99.90
3996;DHT22;2012;49.794;9.722;2024-03-22T12:48:56;15.40;99.90
3996;DHT22;2012;49.794;9.722;2024-03-22T12:51:23;15.50;99.90
3996;DHT22;2012;49.794;9.722;2024-03-22T12:53:49;15.60;99.90
3996;DHT22;2012;49.794;9.722;2024-03-22T12:56:15;15.60;99.90
3996;DHT22;2012;49.794;9.722;2024-03-22T12:58:41;15.60;99.90
3996;DHT22;2012;49.794;9.722;2024-03-22T13:01:09;15.70;99.90
3996;DHT22;2012;49.794;9.722;2024-03-22T13:03:37;15.70;99.90
3996;DHT22;2012;49.794;9.722;2024-03-22T13:06:04;15.80;99.90
3996;DHT22;2012;49.794;9.722;2024-03-22T13:08:31;15.70;99.90
3996;DHT22;2012;49.794;9.722;2024-03-22T13:10:57;15.80;99.90
3996;DHT22;2012;49.794;9.722;2024-03-22T13:13:23;15.80;99.90
3996;DHT22;2012;49.794;9.722;2024-03-22T13:15:49;15.80;99.90
3996;DHT22;2012;49.794;9.722;2024-03-22T13:18:15;15.80;99.90
3996;DHT22;2012;49.794;9.722;2024-03-22T13:20:41;15.80;99.90
3996;DHT22;2012;49.794;9.722;2024-03-22T13:23:07;15.80;99.90
3996;DHT22;2012;49.794;9.722;2024-03-22T13:25:36;15.90;99.90
3996;DHT22;2012;49.794;9.722;2024-03-22T13:28:05;15.90;99.90
3996;DHT22;2012;49.794;9.722;2024-03-22T13:30:32;15.90;99.90
3996;DHT22;2012;49.794;9.722;2024-03-22T13:32:58;15.90;99.90
3996;DHT22;2012;49.794;9.722;2024-03-22T13:35:24;15.90;99.90
3996;DHT22;2012;49.794;9.722;2024-03-22T13:37:50;15.90;99.90
3996;DHT22;2012;49.794;9.722;2024-03-22T13:40:16;15.90;99.90
3996;DHT22;2012;49.794;9.722;2024-03-22T13:42:42;16.00;99.90
3996;DHT22;2012;49.794;9.722;2024-03-22T13:45:08;16.00;99.90
3996;DHT22;2012;49.794;9.722;2024-03-22T13:47:34;16.10;99.90
3996;DHT22;2012;49.794;9.722;2024-03-22T13:50:04;16.10;99.90
3996;DHT22;2012;49.794;9.722;2024-03-22T13:52:31;16.10;99.90
3996;DHT22;2012;49.794;9.722;2024-03-22T13:54:57;16.20;99.90
3996;DHT22;2012;49.794;9.722;2024-03-22T13:57:25;16.20;99.90
3996;DHT22;2012;49.794;9.722;2024-03-22T13:59:51;16.20;99.90
3996;DHT22;2012;49.794;9.722;2024-03-22T14:02:17;16.20;99.90
3996;DHT22;2012;49.794;9.722;2024-03-22T14:04:44;16.30;99.90
3996;DHT22;2012;49.794;9.722;2024-03-22T14:07:10;16.30;99.90
3996;DHT22;2012;49.794;9.722;2024-03-22T14:09:36;16.20;99.90
3996;DHT22;2012;49.794;9.722;2024-03-22T14:12:02;16.20;99.90
3996;DHT22;2012;49.794;9.722;2024-03-22T14:14:28;16.20;99.90
3996;DHT22;2012;49.794;9.722;2024-03-22T14:16:54;16.20;99.90
3996;DHT22;2012;49.794;9.722;2024-03-22T14:19:20;16.20;99.90
3996;DHT22;2012;49.794;9.722;2024-03-22T14:21:46;16.20;99.90
3996;DHT22;2012;49.794;9.722;2024-03-22T14:24:13;16.30;99.90
3996;DHT22;2012;49.794;9.722;2024-03-22T14:26:39;16.20;99.90
3996;DHT22;2012;49.794;9.722;2024-03-22T14:29:12;16.20;99.90
3996;DHT22;2012;49.794;9.722;2024-03-22T14:31:38;16.20;99.90
3996;DHT22;2012;49.794;9.722;2024-03-22T14:34:08;16.10;99.90
3996;DHT22;2012;49.794;9.722;2024-03-22T14:36:34;16.00;99.90
3996;DHT22;2012;49.794;9.722;2024-03-22T14:39:00;16.10;99.90
3996;DHT22;2012;49.794;9.722;2024-03-22T14:41:27;16.00;99.90
3996;DHT22;2012;49.794;9.722;2024-03-22T14:43:53;16.00;99.90
3996;DHT22;2012;49.794;9.722;2024-03-22T14:46:20;16.00;99.90
3996;DHT22;2012;49.794;9.722;2024-03-22T14:48:50;16.00;99.90
3996;DHT22;2012;49.794;9.722;2024-03-22T14:51:17;16.00;99.90
3996;DHT22;2012;49.794;9.722;2024-03-22T14:53:43;16.00;99.90
3996;DHT22;2012;49.794;9.722;2024-03-22T14:56:08;15.90;99.90
3996;DHT22;2012;49.794;9.722;2024-03-22T14:58:34;15.90;99.90
3996;DHT22;2012;49.794;9.722;2024-03-22T15:01:02;15.90;99.90
3996;DHT22;2012;49.794;9.722;2024-03-22T15:03:29;15.90;99.90
3996;DHT22;2012;49.794;9.722;2024-03-22T15:05:56;15.90;99.90
3996;DHT22;2012;49.794;9.722;2024-03-22T15:08:22;15.90;99.90
3996;DHT22;2012;49.794;9.722;2024-03-22T15:10:49;15.90;99.90
3996;DHT22;2012;49.794;9.722;2024-03-22T15:13:16;16.00;99.90
3996;DHT22;2012;49.794;9.722;2024-03-22T15:15:43;16.00;99.90
3996;DHT22;2012;49.794;9.722;2024-03-22T15:18:17;16.00;99.90
3996;DHT22;2012;49.794;9.722;2024-03-22T15:20:43;15.90;99.90
3996;DHT22;2012;49.794;9.722;2024-03-22T15:23:09;15.90;99.90
3996;DHT22;2012;49.794;9.722;2024-03-22T15:25:35;15.90;99.90
3996;DHT22;2012;49.794;9.722;2024-03-22T15:52:23;15.80;99.90
3996;DHT22;2012;49.794;9.722;2024-03-22T15:54:49;15.80;99.90
3996;DHT22;2012;49.794;9.722;2024-03-22T15:57:16;15.80;99.90
3996;DHT22;2012;49.794;9.722;2024-03-22T15:59:42;15.80;99.90
3996;DHT22;2012;49.794;9.722;2024-03-22T16:02:08;15.70;99.90
3996;DHT22;2012;49.794;9.722;2024-03-22T16:04:34;15.80;99.90
3996;DHT22;2012;49.794;9.722;2024-03-22T16:07:00;15.80;99.90
3996;DHT22;2012;49.794;9.722;2024-03-22T16:09:26;15.80;99.90
3996;DHT22;2012;49.794;9.722;2024-03-22T16:11:52;15.70;99.90
3996;DHT22;2012;49.794;9.722;2024-03-22T16:14:18;15.70;99.90
3996;DHT22;2012;49.794;9.722;2024-03-22T16:16:44;15.70;99.90
3996;DHT22;2012;49.794;9.722;2024-03-22T16:19:11;15.70;99.90
3996;DHT22;2012;49.794;9.722;2024-03-22T16:21:37;15.60;99.90
3996;DHT22;2012;49.794;9.722;2024-03-22T16:24:03;15.60;99.90
3996;DHT22;2012;49.794;9.722;2024-03-22T16:26:30;15.60;99.90
3996;DHT22;2012;49.794;9.722;2024-03-22T16:28:56;15.60;99.90